Time;durP1;ratioP1;P1;durP2;ratioP2;P2;SDS_P1;SDS_P2;PMS_P1;PMS_P2;Temp;Humidity;BMP_temperature;BMP_pressure;BME280_temperature;BME280_humidity;BME280_pressure;Samples;Min_cycle;Max_cycle;Signal;HPM_P1;HPM_P2
2022/01/04 00:00:53;;;;;;;14.43;5.55;;;;;;;4.70;92.86;99355.25;5037214;28;20049;-59
2022/01/04 00:03:21;;;;;;;16.17;5.68;;;;;;;4.71;93.17;99351.81;5035213;28;20446;-59
2022/01/04 00:05:48;;;;;;;12.13;5.15;;;;;;;4.71;93.10;99351.81;5039819;28;20057;-59
2022/01/04 00:08:15;;;;;;;18.38;6.25;;;;;;;4.73;93.03;99355.22;5045294;28;20425;-59
2022/01/04 00:10:42;;;;;;;11.30;5.32;;;;;;;4.75;92.58;99348.34;5038686;28;20096;-59
2022/01/04 00:13:23;;;;;;;13.25;5.47;;;;;;;4.77;92.74;99346.63;5037915;28;20692;-59
2022/01/04 00:15:53;;;;;;;9.65;5.20;;;;;;;4.79;92.60;99334.63;5040085;28;20056;-59
2022/01/04 00:18:20;;;;;;;12.98;4.85;;;;;;;4.85;92.98;99341.44;5037630;28;20457;-59
2022/01/04 00:20:48;;;;;;;14.52;5.55;;;;;;;4.90;92.80;99353.38;5036857;28;20056;-59
2022/01/04 00:23:15;;;;;;;14.25;5.20;;;;;;;4.95;92.60;99349.06;5037619;28;20114;-59
2022/01/04 00:25:43;;;;;;;15.13;5.13;;;;;;;5.00;92.23;99344.72;5036631;28;20048;-59
2022/01/04 00:28:11;;;;;;;12.15;5.28;;;;;;;5.04;92.65;99351.53;5036590;28;20056;-59
2022/01/04 00:30:40;;;;;;;16.73;5.25;;;;;;;5.08;92.37;99348.09;5038161;28;20071;-60
2022/01/04 00:33:10;;;;;;;14.25;5.05;;;;;;;5.12;91.99;99343.78;5038156;28;20817;-59
2022/01/04 00:35:37;;;;;;;16.88;5.70;;;;;;;5.17;92.09;99343.72;5036637;28;20087;-59
2022/01/04 00:38:04;;;;;;;18.45;5.03;;;;;;;5.21;91.68;99335.16;5036818;28;20394;-59
2022/01/04 00:40:32;;;;;;;12.00;5.07;;;;;;;5.25;91.05;99334.28;5037380;28;20048;-59
2022/01/04 00:42:59;;;;;;;12.30;4.35;;;;;;;5.28;91.20;99329.94;5042413;28;20067;-59
2022/01/04 00:45:27;;;;;;;8.65;3.65;;;;;;;5.32;90.86;99330.78;5037643;28;20055;-59
2022/01/04 00:50:40;;;;;;;12.23;3.80;;;;;;;5.38;90.43;99330.72;5036571;28;20052;-59
2022/01/04 00:53:08;;;;;;;13.13;4.10;;;;;;;5.42;90.27;99332.38;5039413;28;20049;-59
2022/01/04 00:55:35;;;;;;;14.23;4.78;;;;;;;5.45;89.75;99334.94;5038379;28;20516;-59
2022/01/04 00:58:03;;;;;;;10.20;4.35;;;;;;;5.47;89.37;99338.34;5038732;28;20049;-59
2022/01/04 01:00:31;;;;;;;11.75;4.40;;;;;;;5.50;89.77;99325.44;5038718;28;20063;-59
2022/01/04 01:02:58;;;;;;;11.68;4.32;;;;;;;5.50;89.28;99315.16;5038310;28;20441;-59
2022/01/04 01:05:26;;;;;;;9.18;4.28;;;;;;;5.52;89.23;99318.56;5035746;28;20052;-59
2022/01/04 01:07:55;;;;;;;12.43;4.07;;;;;;;5.52;89.17;99313.44;5035714;28;20151;-59
2022/01/04 01:10:40;;;;;;;10.30;3.80;;;;;;;5.53;89.35;99315.13;5037347;28;20059;-59
2022/01/04 01:13:08;;;;;;;8.95;3.60;;;;;;;5.55;89.25;99310.81;5037694;28;20049;-59
2022/01/04 01:15:36;;;;;;;13.80;4.63;;;;;;;5.55;89.50;99305.69;5037422;28;20049;-59
2022/01/04 01:18:03;;;;;;;9.65;3.40;;;;;;;5.57;88.79;99315.94;5036160;28;20214;-59
2022/01/04 01:20:31;;;;;;;8.38;3.35;;;;;;;5.58;88.96;99303.06;5037907;28;20410;-60
2022/01/04 01:22:59;;;;;;;12.95;4.07;;;;;;;5.57;88.65;99303.94;5035023;28;20552;-59
2022/01/04 01:25:26;;;;;;;8.45;2.95;;;;;;;5.55;88.34;99308.25;5036001;28;20084;-59
2022/01/04 01:27:54;;;;;;;8.95;3.33;;;;;;;5.51;88.39;99306.59;5038214;28;20061;-59
2022/01/04 01:30:21;;;;;;;9.57;3.30;;;;;;;5.46;88.49;99308.34;5037370;28;20060;-59
2022/01/04 01:32:51;;;;;;;7.18;3.13;;;;;;;5.39;88.42;99301.56;5037728;28;20056;-59
2022/01/04 01:35:18;;;;;;;9.23;3.40;;;;;;;5.37;88.47;99300.75;5041967;28;20051;-59
2022/01/04 01:37:45;;;;;;;8.57;2.75;;;;;;;5.31;88.29;99298.25;5038123;28;20880;-59
2022/01/04 01:40:15;;;;;;;9.65;3.00;;;;;;;5.29;88.31;99297.41;5035283;28;20481;-59
2022/01/04 01:42:42;;;;;;;9.68;3.38;;;;;;;5.22;88.70;99293.19;5036844;28;20049;-60
2022/01/04 01:45:12;;;;;;;8.90;2.83;;;;;;;5.20;88.84;99279.47;5038196;28;20076;-59
2022/01/04 01:47:41;;;;;;;7.80;2.60;;;;;;;5.16;89.01;99277.81;5037580;28;20110;-60
2022/01/04 01:50:09;;;;;;;7.00;2.80;;;;;;;5.13;88.98;99280.41;5038791;28;20076;-59
2022/01/04 01:52:37;;;;;;;10.65;3.13;;;;;;;5.11;89.29;99274.44;5041533;28;20106;-59
2022/01/04 01:55:05;;;;;;;8.70;2.70;;;;;;;5.09;88.94;99282.16;5035891;28;20052;-59
2022/01/04 01:57:33;;;;;;;7.38;2.88;;;;;;;5.04;89.42;99284.78;5034120;28;20060;-59
2022/01/04 02:00:01;;;;;;;11.02;3.15;;;;;;;4.99;89.45;99281.41;5036887;28;20052;-59
2022/01/04 02:02:28;;;;;;;9.18;2.88;;;;;;;4.93;89.23;99270.31;5035914;28;20044;-59
2022/01/04 02:04:55;;;;;;;10.15;3.20;;;;;;;4.88;89.55;99262.66;5038160;28;20731;-59
2022/01/04 02:07:23;;;;;;;10.40;2.75;;;;;;;4.86;89.98;99258.41;5035081;28;20521;-59
2022/01/04 02:10:01;;;;;;;8.73;3.08;;;;;;;4.84;89.91;99252.44;5036065;28;20067;-60
2022/01/04 02:12:29;;;;;;;11.35;2.88;;;;;;;4.83;90.10;99254.16;5033892;28;20060;-59
2022/01/04 02:14:58;;;;;;;9.73;3.20;;;;;;;4.82;90.42;99260.16;5036194;28;20053;-59
2022/01/04 02:17:25;;;;;;;10.32;4.00;;;;;;;4.81;90.46;99257.59;5036313;28;20543;-59
2022/01/04 02:19:55;;;;;;;7.82;4.00;;;;;;;4.80;90.43;99263.59;5035693;28;20049;-59
2022/01/04 02:22:22;;;;;;;10.73;5.50;;;;;;;4.75;90.66;99254.22;5036387;28;20681;-59
2022/01/04 02:24:49;;;;;;;8.57;3.60;;;;;;;4.72;90.62;99245.69;5036460;28;20056;-59
2022/01/04 02:27:17;;;;;;;10.77;3.35;;;;;;;4.70;90.96;99255.97;5036519;28;20056;-59
2022/01/04 02:29:46;;;;;;;16.35;4.95;;;;;;;4.71;90.84;99264.53;5035048;28;20064;-59
2022/01/04 02:32:13;;;;;;;14.70;4.05;;;;;;;4.71;90.78;99259.41;5035971;28;20053;-59
2022/01/04 02:34:41;;;;;;;11.63;3.70;;;;;;;4.74;91.08;99261.94;5034739;28;20057;-59
2022/01/04 02:37:09;;;;;;;16.67;5.70;;;;;;;4.77;90.98;99255.94;5037983;28;20045;-59
2022/01/04 02:39:38;;;;;;;6.20;3.33;;;;;;;4.81;90.90;99244.75;5037130;28;20175;-59
2022/01/04 02:42:06;;;;;;;9.50;3.70;;;;;;;4.83;90.57;99240.47;5035015;28;20057;-59
2022/01/04 02:44:33;;;;;;;10.23;4.13;;;;;;;4.84;90.45;99227.63;5037090;28;20112;-59
2022/01/04 02:47:00;;;;;;;12.45;5.25;;;;;;;4.87;90.71;99229.31;5035349;28;20052;-59
2022/01/04 02:49:27;;;;;;;19.30;6.95;;;;;;;4.87;90.58;99222.44;5036279;28;20053;-59
2022/01/04 02:51:55;;;;;;;17.85;7.45;;;;;;;4.87;90.48;99214.75;5036236;28;20383;-59
2022/01/04 02:54:23;;;;;;;16.48;7.95;;;;;;;4.87;90.34;99219.88;5036966;28;20053;-59
2022/01/04 02:56:50;;;;;;;16.52;6.85;;;;;;;4.84;90.39;99230.19;5034962;28;20060;-59
2022/01/04 02:59:17;;;;;;;13.30;5.80;;;;;;;4.83;90.85;99228.47;5034682;28;20052;-59
2022/01/04 03:01:44;;;;;;;17.85;6.82;;;;;;;4.85;90.65;99221.63;5035718;28;20049;-59
2022/01/04 03:04:12;;;;;;;18.08;6.65;;;;;;;4.86;90.86;99222.47;5034198;28;20056;-59
2022/01/04 03:06:39;;;;;;;15.38;6.28;;;;;;;4.88;90.99;99221.59;5035280;28;20060;-59
2022/01/04 03:09:07;;;;;;;23.40;7.70;;;;;;;4.92;91.14;99218.13;5034738;28;20048;-59
2022/01/04 03:11:36;;;;;;;17.75;6.53;;;;;;;4.95;90.88;99217.25;5038699;28;20053;-59
2022/01/04 03:14:03;;;;;;;13.70;5.07;;;;;;;5.00;90.60;99215.47;5035395;28;20524;-60
2022/01/04 03:16:30;;;;;;;17.83;7.57;;;;;;;5.02;90.32;99208.59;5034767;28;20056;-59
2022/01/04 03:19:06;;;;;;;18.38;6.82;;;;;;;5.02;90.43;99206.88;5034425;28;20048;-59
2022/01/04 03:21:35;;;;;;;22.83;9.60;;;;;;;5.02;90.43;99206.88;5035015;28;20072;-59
2022/01/04 03:24:03;;;;;;;20.50;8.18;;;;;;;5.03;89.99;99198.31;5039068;28;20128;-59
2022/01/04 03:26:30;;;;;;;29.45;11.75;;;;;;;5.01;90.36;99202.63;5039193;28;20103;-59
2022/01/04 03:28:59;;;;;;;16.38;5.57;;;;;;;4.99;90.28;99194.06;5039089;28;20584;-59
2022/01/04 03:31:27;;;;;;;26.27;10.38;;;;;;;4.96;90.32;99203.53;5039559;28;20421;-59
2022/01/04 03:33:55;;;;;;;18.52;7.57;;;;;;;4.92;89.81;99192.44;5037832;28;20068;-59
2022/01/04 03:36:24;;;;;;;23.58;8.40;;;;;;;4.87;89.85;99183.94;5037939;28;20057;-59
2022/01/04 03:38:52;;;;;;;18.40;7.28;;;;;;;4.82;90.66;99190.84;5037943;28;20894;-59
2022/01/04 03:41:21;;;;;;;28.38;10.85;;;;;;;4.80;90.42;99187.44;5038602;28;20068;-59
2022/01/04 03:43:48;;;;;;;14.10;6.63;;;;;;;4.77;90.66;99190.03;5039629;28;20049;-59
2022/01/04 03:46:17;;;;;;;27.90;8.70;;;;;;;4.74;90.82;99187.50;5041199;28;20060;-59
2022/01/04 03:48:45;;;;;;;20.85;9.35;;;;;;;4.67;90.87;99196.09;5038302;28;20064;-59
2022/01/04 03:51:13;;;;;;;29.70;11.43;;;;;;;4.67;91.10;99190.94;5039538;28;20053;-60
2022/01/04 03:53:40;;;;;;;27.52;11.60;;;;;;;4.67;91.37;99185.81;5039997;28;20086;-59
2022/01/04 03:56:07;;;;;;;33.15;11.93;;;;;;;4.66;91.25;99190.09;5040362;28;20059;-59
2022/01/04 03:58:35;;;;;;;41.72;15.02;;;;;;;4.66;91.55;99184.97;5040253;28;20060;-59
2022/01/04 04:01:02;;;;;;;43.10;14.90;;;;;;;4.67;91.32;99186.66;5039512;28;20052;-59
2022/01/04 04:03:31;;;;;;;35.75;10.82;;;;;;;4.68;91.57;99187.53;5041351;28;20044;-59
2022/01/04 04:05:58;;;;;;;34.33;10.77;;;;;;;4.70;91.83;99180.69;5036800;28;20422;-59
2022/01/04 04:08:25;;;;;;;30.90;11.48;;;;;;;4.71;91.69;99190.09;5039137;28;20486;-59
2022/01/04 04:10:53;;;;;;;23.67;9.82;;;;;;;4.74;91.44;99182.38;5039244;28;20114;-59
2022/01/04 04:13:20;;;;;;;34.15;11.82;;;;;;;4.75;91.78;99184.91;5039475;28;20497;-59
2022/01/04 04:15:47;;;;;;;45.42;16.52;;;;;;;4.78;91.30;99189.16;5038730;28;20049;-59
2022/01/04 04:18:16;;;;;;;30.67;12.13;;;;;;;4.79;91.70;99185.72;5039722;28;20057;-59
2022/01/04 04:20:45;;;;;;;43.03;14.98;;;;;;;4.82;91.41;99185.69;5035702;28;20140;-60
2022/01/04 04:23:13;;;;;;;25.98;9.65;;;;;;;4.83;91.48;99181.41;5039841;28;20074;-59
2022/01/04 04:25:41;;;;;;;30.45;10.93;;;;;;;4.83;91.93;99182.28;5038539;28;20053;-59
2022/01/04 04:28:09;;;;;;;24.17;10.07;;;;;;;4.82;91.85;99185.69;5039726;28;20057;-59
2022/01/04 04:30:36;;;;;;;28.45;11.88;;;;;;;4.82;91.49;99180.56;5038729;28;20041;-60
2022/01/04 04:33:04;;;;;;;29.30;11.50;;;;;;;4.83;91.67;99186.56;5038212;28;20056;-59
2022/01/04 04:35:31;;;;;;;31.60;11.30;;;;;;;4.83;91.78;99186.56;5039555;28;20041;-59
2022/01/04 04:38:01;;;;;;;34.72;13.02;;;;;;;4.84;91.77;99183.97;5036848;28;20044;-60
2022/01/04 04:40:28;;;;;;;54.95;21.33;;;;;;;4.87;91.80;99183.09;5038272;28;20060;-59
2022/01/04 04:42:56;;;;;;;47.22;15.57;;;;;;;4.89;91.98;99183.91;5038751;28;20095;-59
2022/01/04 04:45:23;;;;;;;41.08;13.15;;;;;;;4.91;92.15;99183.03;5038963;28;20691;-59
2022/01/04 04:47:50;;;;;;;48.30;17.33;;;;;;;4.92;92.21;99171.06;5037424;28;20057;-59
2022/01/04 04:50:17;;;;;;;39.03;15.63;;;;;;;4.94;92.06;99170.16;5038489;28;20521;-59
2022/01/04 04:52:45;;;;;;;29.58;9.68;;;;;;;4.97;91.67;99167.56;5037678;28;20056;-60
2022/01/04 04:55:13;;;;;;;41.67;14.95;;;;;;;4.99;91.74;99168.41;5039574;28;20057;-59
2022/01/04 04:57:41;;;;;;;54.85;20.90;;;;;;;5.00;91.67;99170.09;5038548;28;20057;-60
2022/01/04 05:00:10;;;;;;;35.22;13.98;;;;;;;5.02;91.64;99162.38;5038664;28;20053;-59
2022/01/04 05:02:38;;;;;;;56.60;18.85;;;;;;;5.04;91.81;99166.63;5038409;28;20661;-60
2022/01/04 05:05:07;;;;;;;32.38;12.65;;;;;;;5.06;91.60;99164.03;5038420;28;20080;-59
2022/01/04 05:07:34;;;;;;;25.20;8.60;;;;;;;5.07;91.47;99163.19;5037546;28;20513;-59
2022/01/04 05:10:01;;;;;;;29.30;11.43;;;;;;;5.07;91.71;99156.31;5038091;28;20498;-59
2022/01/04 05:12:30;;;;;;;20.90;9.05;;;;;;;5.11;91.34;99148.56;5037930;28;20053;-60
2022/01/04 05:14:57;;;;;;;20.83;7.18;;;;;;;5.12;91.21;99148.56;5038436;28;20173;-59
2022/01/04 05:17:24;;;;;;;34.00;12.32;;;;;;;5.14;91.59;99151.97;5037021;28;20495;-60
2022/01/04 05:19:51;;;;;;;20.70;8.02;;;;;;;5.15;91.41;99145.97;5038063;28;20060;-60
2022/01/04 05:22:18;;;;;;;45.00;16.42;;;;;;;5.15;91.51;99142.53;5037430;28;20053;-59
2022/01/04 05:24:45;;;;;;;35.45;13.85;;;;;;;5.19;91.17;99144.19;5036928;28;20068;-59
2022/01/04 05:27:13;;;;;;;40.05;17.10;;;;;;;5.20;91.26;99143.31;5036372;28;20490;-59
2022/01/04 05:29:41;;;;;;;32.17;12.85;;;;;;;5.20;91.15;99140.75;5038559;28;20060;-60
2022/01/04 05:32:09;;;;;;;28.75;12.07;;;;;;;5.21;91.07;99133.06;5036900;28;20512;-59
2022/01/04 05:34:36;;;;;;;30.98;12.27;;;;;;;5.22;91.14;99133.91;5037531;28;20049;-59
2022/01/04 05:37:03;;;;;;;45.00;18.52;;;;;;;5.24;91.29;99137.31;5036416;28;20056;-59
2022/01/04 05:39:30;;;;;;;23.27;9.18;;;;;;;5.24;91.11;99139.88;5038470;28;20077;-59
2022/01/04 05:41:57;;;;;;;44.33;17.63;;;;;;;5.28;90.99;99144.13;5037101;28;20099;-59
2022/01/04 05:44:24;;;;;;;25.42;10.63;;;;;;;5.28;90.97;99133.84;5041250;28;21017;-59
2022/01/04 05:46:53;;;;;;;13.57;6.85;;;;;;;5.29;90.90;99135.53;5035977;28;20139;-59
2022/01/04 05:49:20;;;;;;;29.25;10.20;;;;;;;5.29;90.66;99132.97;5037365;28;20473;-59
2022/01/04 05:51:47;;;;;;;22.77;8.52;;;;;;;5.29;90.57;99130.41;5037571;28;20098;-60
2022/01/04 05:54:14;;;;;;;17.17;5.95;;;;;;;5.32;90.51;99120.09;5037024;28;20052;-59
2022/01/04 05:56:41;;;;;;;21.98;9.13;;;;;;;5.32;90.12;99120.94;5039119;28;20067;-60
2022/01/04 05:59:09;;;;;;;19.42;9.50;;;;;;;5.33;90.19;99116.66;5034752;28;20049;-59
2022/01/04 06:01:36;;;;;;;22.95;8.35;;;;;;;5.32;89.77;99109.81;5041170;28;20049;-60
2022/01/04 06:04:05;;;;;;;40.20;15.73;;;;;;;5.33;89.77;99103.78;5040622;28;20048;-59
2022/01/04 06:06:33;;;;;;;35.72;15.25;;;;;;;5.33;89.79;99098.66;5043215;28;20486;-60
2022/01/04 06:09:00;;;;;;;23.45;9.77;;;;;;;5.34;89.91;99105.50;5039924;28;20080;-60
2022/01/04 06:11:55;;;;;;;34.67;15.10;;;;;;;5.34;90.07;99113.19;5036926;28;20399;-60
2022/01/04 06:17:13;;;;;;;40.92;20.33;;;;;;;5.35;89.58;99105.47;5019530;28;20057;-59
2022/01/04 06:19:41;;;;;;;46.50;22.63;;;;;;;5.36;90.19;99103.75;5041578;28;20044;-59
2022/01/04 06:22:09;;;;;;;19.45;9.77;;;;;;;5.35;89.82;99099.50;5036725;28;20059;-59
2022/01/04 06:24:37;;;;;;;33.90;16.27;;;;;;;5.35;90.39;99107.19;5036436;28;20056;-59
2022/01/04 06:27:09;;;;;;;27.20;11.43;;;;;;;5.35;89.81;99094.34;5036917;28;20183;-60
2022/01/04 06:29:38;;;;;;;22.80;12.27;;;;;;;5.37;90.06;99097.75;5036412;28;20452;-59
2022/01/04 06:32:06;;;;;;;33.70;16.10;;;;;;;5.35;90.10;99089.22;5035221;28;20673;-60
2022/01/04 06:34:35;;;;;;;25.33;12.45;;;;;;;5.34;89.85;99095.22;5033369;28;20057;-60
2022/01/04 06:37:04;;;;;;;24.38;10.05;;;;;;;5.32;90.33;99095.25;5034144;28;20470;-59
2022/01/04 06:39:31;;;;;;;16.55;8.55;;;;;;;5.32;90.21;99090.09;5034468;28;20060;-59
2022/01/04 06:41:58;;;;;;;19.05;9.45;;;;;;;5.31;90.52;99092.69;5034023;28;20045;-59
2022/01/04 06:44:25;;;;;;;32.40;14.23;;;;;;;5.31;90.41;99097.84;5035749;28;20485;-59
2022/01/04 06:46:52;;;;;;;38.33;18.42;;;;;;;5.29;90.37;99102.13;5036177;28;20053;-60
2022/01/04 06:49:21;;;;;;;28.25;14.38;;;;;;;5.29;90.57;99099.56;5034237;28;20049;-60
2022/01/04 06:51:48;;;;;;;22.45;10.85;;;;;;;5.28;90.49;99097.88;5034646;28;20099;-60
2022/01/04 06:54:18;;;;;;;24.30;11.45;;;;;;;5.29;90.28;99089.28;5033833;28;20057;-60
2022/01/04 06:56:46;;;;;;;32.72;14.57;;;;;;;5.29;90.67;99086.72;5035911;28;20049;-60
2022/01/04 06:59:13;;;;;;;33.92;14.48;;;;;;;5.28;90.64;99080.75;5040257;28;22057;-60
2022/01/04 07:01:42;;;;;;;28.08;15.05;;;;;;;5.29;90.51;99082.44;5040298;28;20052;-61
2022/01/04 07:04:09;;;;;;;37.55;19.08;;;;;;;5.29;90.40;99079.00;5038478;28;20053;-60
2022/01/04 07:06:36;;;;;;;29.13;11.05;;;;;;;5.28;90.25;99082.44;5038710;28;20091;-58
2022/01/04 07:09:05;;;;;;;29.98;15.00;;;;;;;5.27;90.53;99073.06;5038808;28;20065;-60
2022/01/04 07:11:34;;;;;;;33.20;15.35;;;;;;;5.28;90.41;99073.03;5033163;28;20790;-57
2022/01/04 07:14:01;;;;;;;20.83;8.90;;;;;;;5.29;90.32;99068.75;5032839;28;20117;-57
2022/01/04 07:16:28;;;;;;;33.40;15.63;;;;;;;5.28;90.41;99069.59;5036637;28;20049;-58
2022/01/04 07:18:55;;;;;;;20.33;9.98;;;;;;;5.28;90.47;99073.03;5036069;28;20401;-57
2022/01/04 07:21:23;;;;;;;17.90;10.25;;;;;;;5.27;90.79;99070.47;5033710;28;20064;-54
2022/01/04 07:23:51;;;;;;;23.70;12.43;;;;;;;5.28;90.76;99067.03;5037454;28;20041;-54
2022/01/04 07:26:19;;;;;;;17.65;9.70;;;;;;;5.27;90.78;99070.47;5036976;28;20398;-53
2022/01/04 07:28:49;;;;;;;16.35;7.20;;;;;;;5.28;90.58;99061.91;5040016;28;20040;-50
2022/01/04 07:31:17;;;;;;;17.35;7.63;;;;;;;5.28;90.95;99062.75;5036712;28;20053;-49
2022/01/04 07:33:46;;;;;;;16.42;8.85;;;;;;;5.30;90.87;99067.88;5037089;28;20056;-54
2022/01/04 07:36:13;;;;;;;17.55;8.93;;;;;;;5.30;90.74;99065.31;5031301;28;20053;-53
2022/01/04 07:38:40;;;;;;;15.25;7.10;;;;;;;5.29;91.07;99067.03;5033942;28;20093;-50
2022/01/04 07:41:08;;;;;;;18.17;7.20;;;;;;;5.29;91.10;99073.88;5035285;28;20056;-51
2022/01/04 07:43:35;;;;;;;19.80;7.53;;;;;;;5.29;90.96;99074.72;5033949;28;20060;-50
2022/01/04 07:46:04;;;;;;;14.95;7.18;;;;;;;5.29;90.96;99063.59;5036784;28;20048;-49
2022/01/04 07:48:31;;;;;;;16.00;7.65;;;;;;;5.28;90.88;99064.47;5035031;28;20052;-51
2022/01/04 07:50:59;;;;;;;15.13;8.00;;;;;;;5.30;90.89;99070.44;5033611;28;20053;-51
2022/01/04 07:53:27;;;;;;;14.88;6.90;;;;;;;5.30;90.69;99060.16;5033905;28;20063;-54
2022/01/04 07:55:54;;;;;;;16.52;7.70;;;;;;;5.31;90.84;99059.28;5036483;28;20053;-58
2022/01/04 07:58:22;;;;;;;18.30;7.57;;;;;;;5.30;90.71;99050.72;5036020;28;20052;-58
2022/01/04 08:00:49;;;;;;;17.65;6.75;;;;;;;5.32;90.58;99056.69;5033967;28;20091;-58
2022/01/04 08:03:18;;;;;;;19.02;6.93;;;;;;;5.31;90.71;99060.13;5036614;28;20503;-58
2022/01/04 08:05:45;;;;;;;15.95;6.82;;;;;;;5.32;90.41;99063.56;5035292;28;20048;-58
2022/01/04 08:08:12;;;;;;;19.08;7.38;;;;;;;5.32;90.49;99058.41;4991548;28;20065;-56
2022/01/04 08:10:39;;;;;;;13.32;7.72;;;;;;;5.33;90.38;99055.81;4992853;28;20041;-57
2022/01/04 08:13:07;;;;;;;19.02;7.07;;;;;;;5.36;90.22;99060.06;4992347;28;20431;-53
2022/01/04 08:15:34;;;;;;;15.77;6.97;;;;;;;5.35;90.23;99058.38;4993429;28;20380;-55
2022/01/04 08:18:01;;;;;;;16.58;7.55;;;;;;;5.35;90.22;99059.22;4995411;28;20495;-50
2022/01/04 08:20:30;;;;;;;16.58;6.35;;;;;;;5.38;90.15;99059.19;4993149;28;20068;-55
2022/01/04 08:22:59;;;;;;;13.85;6.57;;;;;;;5.42;90.29;99054.84;4992424;28;20046;-59
2022/01/04 08:25:26;;;;;;;13.43;6.15;;;;;;;5.43;89.40;99055.69;4995427;28;20053;-53
2022/01/04 08:27:53;;;;;;;12.10;6.28;;;;;;;5.45;89.71;99047.09;4994154;28;20482;-55
2022/01/04 08:30:21;;;;;;;12.68;6.05;;;;;;;5.47;89.44;99044.50;4994615;28;20058;-56
2022/01/04 08:32:50;;;;;;;16.42;7.32;;;;;;;5.49;89.10;99046.19;4992180;28;20058;-57
2022/01/04 08:35:17;;;;;;;74.90;34.08;;;;;;;5.52;89.35;99040.97;4994306;28;20050;-59
2022/01/04 08:37:46;;;;;;;34.10;15.80;;;;;;;5.53;89.66;99029.84;4994810;28;20050;-60
2022/01/04 08:40:13;;;;;;;15.80;7.85;;;;;;;5.52;89.39;99027.28;4993141;28;20046;-59
2022/01/04 08:42:41;;;;;;;19.58;7.97;;;;;;;5.52;89.32;99030.72;4992881;28;20058;-59
2022/01/04 08:45:09;;;;;;;17.70;10.93;;;;;;;5.52;89.29;99029.84;4995390;28;20049;-59
2022/01/04 08:47:36;;;;;;;18.67;9.27;;;;;;;5.54;89.28;99028.97;4995198;28;20049;-59
2022/01/04 08:50:05;;;;;;;18.60;9.32;;;;;;;5.51;89.44;99023.03;5008443;28;20100;-60
2022/01/04 08:52:32;;;;;;;24.38;13.02;;;;;;;5.52;89.30;99030.72;4993891;28;20058;-59
2022/01/04 08:55:01;;;;;;;19.70;9.52;;;;;;;5.54;89.68;99028.13;4991267;28;21165;-52
2022/01/04 08:57:30;;;;;;;24.80;12.35;;;;;;;5.53;89.58;99027.25;4993585;28;20191;-48
2022/01/04 08:59:57;;;;;;;20.05;10.60;;;;;;;5.52;88.91;99025.56;4992870;28;20408;-48
2022/01/04 09:02:25;;;;;;;18.23;9.15;;;;;;;5.50;89.06;99021.31;4992434;28;20054;-52
2022/01/04 09:04:52;;;;;;;23.55;12.65;;;;;;;5.51;88.99;99021.31;4992222;28;20116;-50
2022/01/04 09:07:19;;;;;;;21.48;11.75;;;;;;;5.51;88.97;99031.59;5018323;28;20060;-49
2022/01/04 09:09:47;;;;;;;23.55;8.73;;;;;;;5.51;89.00;99033.31;5032696;28;20052;-55
2022/01/04 09:12:16;;;;;;;20.80;8.15;;;;;;;5.51;89.33;99034.16;5032413;28;20621;-59
2022/01/04 09:14:55;;;;;;;15.73;9.13;;;;;;;5.50;89.15;99029.88;5033709;28;20579;-56
2022/01/04 09:20:11;;;;;;;22.42;10.38;;;;;;;5.50;88.97;99032.44;5032550;28;20563;-58
2022/01/04 09:22:38;;;;;;;18.85;8.93;;;;;;;5.49;88.81;99022.19;5036540;28;20509;-60
2022/01/04 09:25:07;;;;;;;18.83;8.43;;;;;;;5.50;88.53;99029.03;5034378;28;20052;-59
2022/01/04 09:27:35;;;;;;;18.58;9.02;;;;;;;5.49;88.61;99030.75;5040380;28;20052;-54
2022/01/04 09:30:04;;;;;;;18.88;9.20;;;;;;;5.49;88.62;99017.06;5040819;28;20052;-57
2022/01/04 09:32:32;;;;;;;16.38;7.65;;;;;;;5.46;88.66;99015.38;5036862;28;20523;-57
2022/01/04 09:34:59;;;;;;;20.70;7.68;;;;;;;5.48;88.91;99010.22;5039899;28;20303;-57
2022/01/04 09:37:27;;;;;;;12.77;6.70;;;;;;;5.46;88.60;98994.81;5036532;28;20052;-54
2022/01/04 09:39:54;;;;;;;12.27;5.90;;;;;;;5.46;88.61;98999.97;5031750;28;20060;-55
2022/01/04 09:42:22;;;;;;;20.70;11.13;;;;;;;5.47;88.94;98991.38;5035344;28;20059;-60
2022/01/04 09:44:51;;;;;;;27.45;15.57;;;;;;;5.48;88.65;98987.09;5032132;28;20487;-54
2022/01/04 09:47:19;;;;;;;27.95;16.42;;;;;;;5.47;88.67;98981.09;5032226;28;20363;-51
2022/01/04 09:49:46;;;;;;;24.23;14.88;;;;;;;5.47;88.75;98975.97;5033372;28;20052;-57
2022/01/04 09:52:19;;;;;;;38.00;20.33;;;;;;;5.47;88.87;98980.25;5028467;28;20413;-57
2022/01/04 09:54:51;;;;;;;20.67;11.57;;;;;;;5.48;88.64;98977.66;5031540;28;20053;-57
2022/01/04 09:57:18;;;;;;;17.55;8.35;;;;;;;5.48;88.73;98967.38;5033436;28;20119;-59
2022/01/04 09:59:46;;;;;;;25.42;13.20;;;;;;;5.49;87.95;98968.22;5030060;28;20509;-57
2022/01/04 10:02:17;;;;;;;21.58;13.00;;;;;;;5.51;88.16;98976.75;5031334;28;20916;-54
2022/01/04 10:04:45;;;;;;;23.90;13.48;;;;;;;5.49;88.16;98974.22;5031042;28;20060;-57
2022/01/04 10:07:13;;;;;;;38.58;22.98;;;;;;;5.50;88.04;98978.47;5033908;28;20056;-55
2022/01/04 10:09:44;;;;;;;19.38;10.73;;;;;;;5.51;87.88;98976.75;5034248;28;20049;-58
2022/01/04 10:12:12;;;;;;;17.90;9.60;;;;;;;5.51;87.93;98977.59;5031143;28;20045;-59
2022/01/04 10:14:43;;;;;;;15.98;9.75;;;;;;;5.53;87.87;98964.72;5031571;28;20048;-63
2022/01/04 10:17:13;;;;;;;16.65;7.75;;;;;;;5.51;87.86;98964.75;5032491;28;20057;-60
2022/01/04 10:19:44;;;;;;;16.92;8.90;;;;;;;5.53;88.13;98954.44;5035829;28;20520;-61
2022/01/04 10:22:14;;;;;;;17.00;8.85;;;;;;;5.54;87.99;98957.00;5032787;28;20121;-60
2022/01/04 10:24:43;;;;;;;13.27;8.02;;;;;;;5.54;87.89;98962.13;5037235;28;20477;-60
2022/01/04 10:27:28;;;;;;;14.95;7.10;;;;;;;5.53;87.50;98950.16;5045134;28;20055;-63
2022/01/04 10:30:14;;;;;;;15.00;7.78;;;;;;;5.51;87.77;98951.91;5046496;28;20429;-58
2022/01/04 10:32:46;;;;;;;15.57;8.65;;;;;;;5.53;87.73;98946.75;5042247;28;20057;-58
2022/01/04 10:35:23;;;;;;;20.95;8.10;;;;;;;5.54;87.80;98935.59;5046064;28;20515;-59
2022/01/04 10:37:50;;;;;;;14.20;8.07;;;;;;;5.52;87.67;98932.19;5044554;28;20061;-57
2022/01/04 10:40:17;;;;;;;13.65;7.50;;;;;;;5.50;87.28;98939.94;5047814;28;20486;-57
2022/01/04 10:42:45;;;;;;;19.83;8.88;;;;;;;5.52;87.57;98924.47;5046724;28;20077;-59
2022/01/04 10:45:28;;;;;;;14.48;7.88;;;;;;;5.47;87.06;98924.56;5049686;28;20041;-60
2022/01/04 10:47:57;;;;;;;11.90;7.07;;;;;;;5.47;87.35;98927.13;5042040;28;20406;-63
2022/01/04 10:50:35;;;;;;;13.23;7.93;;;;;;;5.52;87.45;98927.91;5041354;28;20052;-61
2022/01/04 10:53:03;;;;;;;15.23;7.65;;;;;;;5.50;87.29;98934.78;5041034;28;20052;-61
2022/01/04 10:55:35;;;;;;;12.93;7.60;;;;;;;5.50;87.08;98924.50;5044109;28;20060;-61
2022/01/04 10:58:05;;;;;;;12.98;7.20;;;;;;;5.50;87.47;98919.38;5043006;28;20041;-61
2022/01/04 11:00:32;;;;;;;11.52;7.03;;;;;;;5.51;87.10;98920.22;5051036;28;20413;-61
2022/01/04 11:03:02;;;;;;;14.35;8.02;;;;;;;5.51;87.15;98915.94;5050481;28;20048;-61
2022/01/04 11:05:30;;;;;;;12.25;7.30;;;;;;;5.52;87.13;98912.47;5049159;28;20122;-61
2022/01/04 11:08:07;;;;;;;18.70;8.80;;;;;;;5.51;86.80;98895.38;5047411;28;20135;-61
2022/01/04 11:10:36;;;;;;;14.55;8.00;;;;;;;5.53;86.76;98892.78;5047741;28;20482;-60
2022/01/04 11:13:06;;;;;;;16.40;9.10;;;;;;;5.55;86.47;98891.03;5046077;28;20079;-59
2022/01/04 11:15:38;;;;;;;14.48;8.90;;;;;;;5.56;87.05;98883.28;5050291;28;20053;-57
2022/01/04 11:18:06;;;;;;;18.10;10.50;;;;;;;5.58;86.86;98880.69;5047487;28;20052;-58
2022/01/04 11:20:40;;;;;;;16.17;7.95;;;;;;;5.57;86.50;98869.56;5045215;28;20482;-59
2022/01/04 11:23:15;;;;;;;14.55;8.65;;;;;;;5.60;86.59;98878.94;5053662;28;20053;-56
2022/01/04 11:25:45;;;;;;;16.75;8.90;;;;;;;5.60;86.81;98869.50;5059830;28;20405;-58
2022/01/04 11:28:17;;;;;;;15.75;8.50;;;;;;;5.60;86.52;98856.66;5049426;28;20040;-57
2022/01/04 11:31:11;;;;;;;14.23;8.73;;;;;;;5.62;86.37;98857.47;5044853;28;20132;-51
2022/01/04 11:33:51;;;;;;;15.40;9.48;;;;;;;5.66;86.67;98858.25;5044135;28;20072;-56
2022/01/04 11:36:23;;;;;;;14.48;9.90;;;;;;;5.69;86.68;98853.91;5046192;28;20485;-54
2022/01/04 11:38:55;;;;;;;17.23;9.57;;;;;;;5.67;86.91;98835.09;5050597;28;20055;-54
2022/01/04 11:41:28;;;;;;;14.93;9.10;;;;;;;5.68;86.76;98830.81;5043285;28;20056;-59
2022/01/04 11:43:58;;;;;;;16.40;8.30;;;;;;;5.68;86.71;98823.94;5049721;28;20055;-58
2022/01/04 11:46:37;;;;;;;15.90;8.60;;;;;;;5.67;87.07;98823.97;5053541;28;20110;-58